createdAt,value
2017-02-15T00:00:37.613Z,0.84
2017-02-15T00:01:47.444Z,0.76
2017-02-15T00:02:57.582Z,0.83
2017-02-15T00:04:07.315Z,0.76
2017-02-15T00:05:17.048Z,0.69
2017-02-15T00:06:26.785Z,0.66
2017-02-15T00:07:36.204Z,0.76
2017-02-15T00:08:45.114Z,0.66
2017-02-15T00:09:54.466Z,0.69
2017-02-15T00:11:03.376Z,0.7
2017-02-15T00:12:12.715Z,0.66
2017-02-15T00:13:21.684Z,0.69
2017-02-15T00:14:31.836Z,0.75
2017-02-15T00:15:41.151Z,0.65
2017-02-15T00:16:50.483Z,0.62
2017-02-15T00:17:59.418Z,0.58
2017-02-15T00:19:08.805Z,0.57
2017-02-15T00:20:18.972Z,0.62
2017-02-15T00:21:28.285Z,0.61
2017-02-15T00:22:37.662Z,0.61
2017-02-15T00:23:47.397Z,0.62
2017-02-15T00:24:57.320Z,0.65
2017-02-15T00:26:07.467Z,0.61
2017-02-15T00:27:16.390Z,0.62
2017-02-15T00:28:26.125Z,0.62
2017-02-15T00:29:35.438Z,0.58
2017-02-15T00:30:44.508Z,0.51
2017-02-15T00:31:53.441Z,0.6
2017-02-15T00:33:03.581Z,0.61
2017-02-15T00:34:12.908Z,0.61
2017-02-15T00:35:22.637Z,0.58
2017-02-15T00:36:32.103Z,0.61
2017-02-15T00:37:41.420Z,0.6
2017-02-15T00:38:50.765Z,0.6
2017-02-15T00:40:00.903Z,0.6
2017-02-15T00:41:11.038Z,0.53
2017-02-15T00:42:20.581Z,0.58
2017-02-15T00:43:30.332Z,0.58
2017-02-15T00:44:39.671Z,0.55
2017-02-15T00:45:49.797Z,0.53
2017-02-15T00:46:59.138Z,0.46
2017-02-15T00:48:08.329Z,0.51
2017-02-15T00:49:17.659Z,0.46
2017-02-15T00:50:26.982Z,0.41
2017-02-15T00:51:36.301Z,0.42
2017-02-15T00:52:45.616Z,0.42
2017-02-15T00:53:54.939Z,0.46
2017-02-15T00:55:04.292Z,0.44
2017-02-15T00:56:13.212Z,0.42
2017-02-15T00:57:23.359Z,0.39
2017-02-15T00:58:32.672Z,0.41
2017-02-15T00:59:42.567Z,0.39
2017-02-15T01:00:52.302Z,0.32
2017-02-15T01:02:02.023Z,0.35
2017-02-15T01:03:11.382Z,0.39
2017-02-15T01:04:20.707Z,0.38
2017-02-15T01:05:29.835Z,0.33
2017-02-15T01:06:39.977Z,0.28
2017-02-15T01:07:49.311Z,0.26
2017-02-15T01:08:59.050Z,0.38
2017-02-15T01:10:07.991Z,0.31
2017-02-15T01:11:17.514Z,0.32
2017-02-15T01:12:27.673Z,0.41
2017-02-15T01:13:37.000Z,0.29
2017-02-15T01:14:47.552Z,0.28
2017-02-15T01:15:57.699Z,0.29
2017-02-15T01:17:07.472Z,0.26
2017-02-15T01:18:16.388Z,0.35
2017-02-15T01:19:25.708Z,0.35
2017-02-15T01:20:35.044Z,0.26
2017-02-15T01:21:44.767Z,0.39
2017-02-15T01:22:54.096Z,0.32
2017-02-15T01:24:03.455Z,0.31
2017-02-15T01:25:13.591Z,0.26
2017-02-15T01:26:22.935Z,0.23
2017-02-15T01:27:33.067Z,0.31
2017-02-15T01:28:43.355Z,0.18
2017-02-15T01:29:52.675Z,0.28
2017-02-15T01:31:01.997Z,0.28
2017-02-15T01:32:11.356Z,0.24
2017-02-15T01:33:21.488Z,0.2
2017-02-15T01:34:31.311Z,0.15
2017-02-15T01:35:41.052Z,0.17
2017-02-15T01:36:50.396Z,0.11
2017-02-15T01:38:00.128Z,0.15
2017-02-15T01:39:09.455Z,0.11
2017-02-15T01:40:18.769Z,0.13
2017-02-15T01:41:28.495Z,0.15
2017-02-15T01:42:38.231Z,0.11
2017-02-15T01:43:47.975Z,0.11
2017-02-15T01:44:57.289Z,0.07
2017-02-15T01:46:06.759Z,0.11
2017-02-15T01:47:16.509Z,0.04
2017-02-15T01:48:25.833Z,0.1
2017-02-15T01:49:35.175Z,0.08
2017-02-15T01:50:45.338Z,0.04
2017-02-15T01:51:55.219Z,0.07
2017-02-15T01:53:04.122Z,0.1
2017-02-15T01:54:13.450Z,0.1
2017-02-15T01:55:23.193Z,0.07
2017-02-15T01:56:32.522Z,0.1
2017-02-15T01:57:42.574Z,0.14
2017-02-15T01:58:52.309Z,0.03
2017-02-15T02:00:01.619Z,0.07
2017-02-15T02:01:11.755Z,0.1
2017-02-15T02:02:21.481Z,0.1
2017-02-15T02:03:30.459Z,0.07
2017-02-15T02:04:39.383Z,-0.03
2017-02-15T02:05:49.522Z,0
2017-02-15T02:06:58.450Z,0
2017-02-15T02:08:08.177Z,0
2017-02-15T02:09:17.148Z,0.02
2017-02-15T02:10:26.882Z,0.07
2017-02-15T02:11:36.199Z,-0.01
2017-02-15T02:12:45.547Z,-0.08
2017-02-15T02:13:55.274Z,-0.08
2017-02-15T02:15:04.852Z,-0.01
2017-02-15T02:16:13.774Z,0
2017-02-15T02:17:22.698Z,-0.04
2017-02-15T02:18:32.438Z,-0.03
2017-02-15T02:19:41.347Z,-0.05
2017-02-15T02:20:50.841Z,-0.01
2017-02-15T02:22:00.172Z,-0.04
2017-02-15T02:23:09.484Z,-0.11
2017-02-15T02:24:18.803Z,-0.1
2017-02-15T02:25:28.151Z,-0.11
2017-02-15T02:26:37.562Z,-0.25
2017-02-15T02:27:48.099Z,-0.21
2017-02-15T02:28:57.440Z,-0.14
2017-02-15T02:30:07.175Z,-0.18
2017-02-15T02:31:16.111Z,-0.28
2017-02-15T02:32:25.828Z,-0.19
2017-02-15T02:33:35.158Z,-0.26
2017-02-15T02:34:44.895Z,-0.21
2017-02-15T02:35:54.218Z,-0.28
2017-02-15T02:37:03.550Z,-0.22
2017-02-15T02:38:13.038Z,-0.23
2017-02-15T02:39:22.365Z,-0.26
2017-02-15T02:40:31.692Z,-0.25
2017-02-15T02:41:41.825Z,-0.26
2017-02-15T02:42:51.544Z,-0.26
2017-02-15T02:44:00.879Z,-0.33
2017-02-15T02:45:10.208Z,-0.23
2017-02-15T02:46:19.134Z,-0.26
2017-02-15T02:47:29.268Z,-0.26
2017-02-15T02:48:39.009Z,-0.28
2017-02-15T02:49:49.299Z,-0.28
2017-02-15T02:50:59.037Z,-0.33
2017-02-15T02:52:09.173Z,-0.33
2017-02-15T02:53:18.907Z,-0.39
2017-02-15T02:54:28.241Z,-0.44
2017-02-15T02:55:37.996Z,-0.36
2017-02-15T02:56:47.718Z,-0.43
2017-02-15T02:57:57.459Z,-0.39
2017-02-15T02:59:07.195Z,-0.51
2017-02-15T03:00:16.118Z,-0.46
2017-02-15T03:01:26.304Z,-0.44
2017-02-15T03:02:35.628Z,-0.54
2017-02-15T03:03:45.359Z,-0.44
2017-02-15T03:04:54.684Z,-0.4
2017-02-15T03:06:03.604Z,-0.47
2017-02-15T03:07:12.929Z,-0.44
2017-02-15T03:08:22.664Z,-0.44
2017-02-15T03:09:32.004Z,-0.44
2017-02-15T03:10:41.337Z,-0.43
2017-02-15T03:11:51.472Z,-0.44
2017-02-15T03:13:01.674Z,-0.44
2017-02-15T03:14:10.994Z,-0.4
2017-02-15T03:15:20.329Z,-0.44
2017-02-15T03:16:29.641Z,-0.39
2017-02-15T03:17:40.180Z,-0.46
2017-02-15T03:18:49.562Z,-0.49
2017-02-15T03:19:58.898Z,-0.46
2017-02-15T03:21:09.043Z,-0.46
2017-02-15T03:22:17.975Z,-0.47
2017-02-15T03:23:27.726Z,-0.51
2017-02-15T03:24:37.725Z,-0.46
2017-02-15T03:25:47.448Z,-0.42
2017-02-15T03:26:56.770Z,-0.51
2017-02-15T03:28:07.304Z,-0.51
2017-02-15T03:29:16.221Z,-0.51
2017-02-15T03:30:25.603Z,-0.46
2017-02-15T03:31:35.349Z,-0.39
2017-02-15T03:32:44.263Z,-0.42
2017-02-15T03:33:53.612Z,-0.55
2017-02-15T03:35:02.537Z,-0.44
2017-02-15T03:36:12.057Z,-0.46
2017-02-15T03:37:21.409Z,-0.44
2017-02-15T03:38:30.728Z,-0.51
2017-02-15T03:39:39.645Z,-0.49
2017-02-15T03:40:48.956Z,-0.46
2017-02-15T03:41:58.330Z,-0.44
2017-02-15T03:43:08.059Z,-0.46
2017-02-15T03:44:16.963Z,-0.42
2017-02-15T03:45:26.285Z,-0.49
2017-02-15T03:46:36.429Z,-0.51
2017-02-15T03:47:45.997Z,-0.44
2017-02-15T03:48:55.755Z,-0.44
2017-02-15T03:50:05.489Z,-0.52
2017-02-15T03:51:14.392Z,-0.46
2017-02-15T03:52:24.115Z,-0.49
2017-02-15T03:53:33.942Z,-0.54
2017-02-15T03:54:43.671Z,-0.49
2017-02-15T03:55:53.405Z,-0.52
2017-02-15T03:57:02.742Z,-0.52
2017-02-15T03:58:12.063Z,-0.62
2017-02-15T03:59:21.433Z,-0.61
2017-02-15T04:00:31.587Z,-0.62
2017-02-15T04:01:40.895Z,-0.62
2017-02-15T04:02:50.640Z,-0.54
2017-02-15T04:03:59.548Z,-0.55
2017-02-15T04:05:08.691Z,-0.62
2017-02-15T04:06:18.439Z,-0.67
2017-02-15T04:07:28.178Z,-0.64
2017-02-15T04:08:38.318Z,-0.67
2017-02-15T04:09:48.036Z,-0.7
2017-02-15T04:10:57.755Z,-0.69
2017-02-15T04:12:07.486Z,-0.65
2017-02-15T04:13:17.627Z,-0.7
2017-02-15T04:14:27.363Z,-0.7
2017-02-15T04:15:36.288Z,-0.82
2017-02-15T04:16:45.661Z,-0.72
2017-02-15T04:17:55.381Z,-0.78
2017-02-15T04:19:05.106Z,-0.76
2017-02-15T04:20:14.429Z,-0.72
2017-02-15T04:21:24.150Z,-0.86
2017-02-15T04:22:33.947Z,-0.82
2017-02-15T04:23:43.684Z,-0.76
2017-02-15T04:24:52.996Z,-0.79
2017-02-15T04:26:02.320Z,-0.76
2017-02-15T04:27:12.048Z,-0.85
2017-02-15T04:28:21.418Z,-0.83
2017-02-15T04:29:30.322Z,-0.95
2017-02-15T04:30:39.661Z,-0.97
2017-02-15T04:31:48.982Z,-0.97
2017-02-15T04:32:58.305Z,-0.91
2017-02-15T04:34:08.294Z,-0.94
2017-02-15T04:35:18.023Z,-0.89
2017-02-15T04:36:27.339Z,-0.94
2017-02-15T04:37:36.250Z,-0.98
2017-02-15T04:38:45.573Z,-0.95
2017-02-15T04:39:55.441Z,-0.98
2017-02-15T04:41:04.770Z,-0.95
2017-02-15T04:42:14.112Z,-0.92
2017-02-15T04:43:23.030Z,-0.98
2017-02-15T04:44:33.161Z,-0.95
2017-02-15T04:45:43.345Z,-0.92
2017-02-15T04:46:53.072Z,-0.95
2017-02-15T04:48:03.219Z,-0.85
2017-02-15T04:49:12.534Z,-0.82
2017-02-15T04:50:22.676Z,-0.85
2017-02-15T04:51:32.053Z,-0.85
2017-02-15T04:52:41.385Z,-0.8
2017-02-15T04:53:51.107Z,-0.82
2017-02-15T04:55:00.848Z,-0.89
2017-02-15T04:56:10.182Z,-0.86
2017-02-15T04:57:20.125Z,-0.85
2017-02-15T04:58:29.880Z,-0.86
2017-02-15T04:59:39.598Z,-0.82
2017-02-15T05:00:49.750Z,-0.8
2017-02-15T05:01:59.502Z,-0.76
2017-02-15T05:03:09.490Z,-0.83
2017-02-15T05:04:18.832Z,-0.76
2017-02-15T05:05:28.559Z,-0.8
2017-02-15T05:06:37.462Z,-0.79
2017-02-15T05:07:46.770Z,-0.85
2017-02-15T05:08:56.354Z,-0.82
2017-02-15T05:10:05.696Z,-0.79
2017-02-15T05:11:14.605Z,-0.86
2017-02-15T05:12:25.199Z,-0.85
2017-02-15T05:13:34.953Z,-0.97
2017-02-15T05:14:44.750Z,-0.94
2017-02-15T05:15:54.083Z,-0.95
2017-02-15T05:17:03.810Z,-0.92
2017-02-15T05:18:12.744Z,-0.99
2017-02-15T05:19:22.471Z,-0.97
2017-02-15T05:20:32.364Z,-0.94
2017-02-15T05:21:42.111Z,-0.98
2017-02-15T05:22:51.423Z,-0.99
2017-02-15T05:24:00.747Z,-0.92
2017-02-15T05:25:09.653Z,-0.95
2017-02-15T05:26:19.649Z,-1.01
2017-02-15T05:27:28.980Z,-0.82
2017-02-15T05:28:37.893Z,-0.94
2017-02-15T05:29:46.799Z,-1.01
2017-02-15T05:30:56.937Z,-0.97
2017-02-15T05:32:07.643Z,-1.01
2017-02-15T05:33:17.420Z,-0.98
2017-02-15T05:34:27.160Z,-0.98
2017-02-15T05:35:36.508Z,-0.92
2017-02-15T05:36:46.257Z,-0.92
2017-02-15T05:37:55.729Z,-0.97
2017-02-15T05:39:04.655Z,-0.95
2017-02-15T05:40:13.972Z,-1.1
2017-02-15T05:41:23.303Z,-0.92
2017-02-15T05:42:33.439Z,-0.97
2017-02-15T05:43:42.417Z,-1.04
2017-02-15T05:44:51.750Z,-1.04
2017-02-15T05:46:00.659Z,-1.01
2017-02-15T05:47:10.399Z,-0.95
2017-02-15T05:48:20.545Z,-1.04
2017-02-15T05:49:29.657Z,-1.12
2017-02-15T05:50:40.199Z,-1.12
2017-02-15T05:51:49.530Z,-1.07
2017-02-15T05:52:58.855Z,-1.1
2017-02-15T05:54:08.178Z,-1.1
2017-02-15T05:55:18.052Z,-1.15
2017-02-15T05:56:26.966Z,-1.13
2017-02-15T05:57:36.342Z,-1.12
2017-02-15T05:58:45.663Z,-1.19
2017-02-15T05:59:55.804Z,-1.19
2017-02-15T06:01:04.861Z,-1.16
2017-02-15T06:02:14.594Z,-1.16
2017-02-15T06:03:24.312Z,-1.16
2017-02-15T06:04:34.051Z,-1.12
2017-02-15T06:05:43.772Z,-1.25
2017-02-15T06:06:52.835Z,-1.19
2017-02-15T06:08:02.167Z,-1.2
2017-02-15T06:09:11.090Z,-1.16
2017-02-15T06:10:20.419Z,-1.23
2017-02-15T06:11:29.745Z,-1.19
2017-02-15T06:12:39.628Z,-1.28
2017-02-15T06:13:49.344Z,-1.19
2017-02-15T06:14:58.659Z,-1.28
2017-02-15T06:16:08.383Z,-1.16
2017-02-15T06:17:18.537Z,-1.2
2017-02-15T06:18:27.756Z,-1.13
2017-02-15T06:19:37.080Z,-1.22
2017-02-15T06:20:46.400Z,-1.23
2017-02-15T06:21:55.735Z,-1.17
2017-02-15T06:23:05.476Z,-1.15
2017-02-15T06:24:14.549Z,-1.19
2017-02-15T06:25:23.873Z,-1.19
2017-02-15T06:26:32.815Z,-1.28
2017-02-15T06:27:42.146Z,-1.31
2017-02-15T06:28:51.881Z,-1.33
2017-02-15T06:30:01.356Z,-1.34
2017-02-15T06:31:10.282Z,-1.27
2017-02-15T06:32:19.603Z,-1.27
2017-02-15T06:33:28.518Z,-1.23
2017-02-15T06:34:37.839Z,-1.2
2017-02-15T06:35:48.033Z,-1.35
2017-02-15T06:36:57.798Z,-1.25
2017-02-15T06:38:07.116Z,-1.28
2017-02-15T06:39:16.428Z,-1.22
2017-02-15T06:40:26.163Z,-1.33
2017-02-15T06:41:35.888Z,-1.31
2017-02-15T06:42:45.204Z,-1.3
2017-02-15T06:43:54.544Z,-1.27
2017-02-15T06:45:03.860Z,-1.3
2017-02-15T06:46:13.179Z,-1.3
2017-02-15T06:47:22.666Z,-1.3
2017-02-15T06:48:32.412Z,-1.28
2017-02-15T06:49:41.725Z,-1.25
2017-02-15T06:50:51.046Z,-1.28
2017-02-15T06:52:00.373Z,-1.3
2017-02-15T06:53:09.337Z,-1.27
2017-02-15T06:54:18.659Z,-1.22
2017-02-15T06:55:27.977Z,-1.3
2017-02-15T06:56:37.695Z,-1.23
2017-02-15T06:57:46.619Z,-1.22
2017-02-15T06:58:55.957Z,-1.15
2017-02-15T07:00:06.578Z,-1.23
2017-02-15T07:01:15.502Z,-1.27
2017-02-15T07:02:24.841Z,-1.22
2017-02-15T07:03:34.572Z,-1.2
2017-02-15T07:04:44.356Z,-1.23
2017-02-15T07:05:54.182Z,-1.19
2017-02-15T07:14:22.696Z,-0.98
2017-02-15T07:15:34.697Z,-1.04
2017-02-15T07:16:44.699Z,-0.97
2017-02-15T07:17:54.772Z,-0.98
2017-02-15T07:19:04.664Z,-0.98
2017-02-15T07:20:14.542Z,-0.99
2017-02-15T07:21:24.608Z,-1.1
2017-02-15T07:22:33.939Z,-0.99
2017-02-15T07:23:43.271Z,-0.98
2017-02-15T07:24:52.196Z,-1.07
2017-02-15T07:26:01.929Z,-1.01
2017-02-15T07:27:11.259Z,-1.04
2017-02-15T07:28:20.577Z,-1.02
2017-02-15T07:29:30.048Z,-0.91
2017-02-15T07:30:39.369Z,-0.92
2017-02-15T07:31:48.688Z,-0.89
2017-02-15T07:32:58.423Z,-0.98
2017-02-15T07:34:07.757Z,-0.8
2017-02-15T07:35:17.079Z,-0.83
2017-02-15T07:36:26.807Z,-0.83
2017-02-15T07:37:36.134Z,-0.73
2017-02-15T07:38:45.051Z,-0.78
2017-02-15T07:39:53.974Z,-0.82
2017-02-15T07:41:04.571Z,-0.73
2017-02-15T07:42:14.346Z,-0.79
2017-02-15T07:43:23.664Z,-0.75
2017-02-15T07:44:32.998Z,-0.7
2017-02-15T07:45:42.347Z,-0.65
2017-02-15T07:46:51.843Z,-0.7
2017-02-15T07:48:02.390Z,-0.67
2017-02-15T07:49:11.370Z,-0.67
2017-02-15T07:50:20.307Z,-0.62
2017-02-15T07:51:30.032Z,-0.67
2017-02-15T07:52:39.954Z,-0.58
2017-02-15T07:53:49.271Z,-0.6
2017-02-15T07:54:58.595Z,-0.55
2017-02-15T07:56:08.328Z,-0.51
2017-02-15T07:57:17.238Z,-0.62
2017-02-15T07:58:27.454Z,-0.51
2017-02-15T07:59:36.773Z,-0.49
2017-02-15T08:00:46.110Z,-0.44
2017-02-15T08:01:55.830Z,-0.47
2017-02-15T08:03:05.146Z,-0.44
2017-02-15T08:04:14.225Z,-0.51
2017-02-15T08:05:23.570Z,-0.4
2017-02-15T08:06:32.883Z,-0.31
2017-02-15T08:07:43.431Z,-0.28
2017-02-15T08:08:52.750Z,-0.4
2017-02-15T08:10:02.915Z,-0.28
2017-02-15T08:11:12.262Z,-0.22
2017-02-15T08:12:21.613Z,-0.19
2017-02-15T08:13:30.536Z,-0.21
2017-02-15T08:14:39.846Z,-0.23
2017-02-15T08:15:49.285Z,-0.08
2017-02-15T08:16:58.213Z,-0.18
2017-02-15T08:18:07.956Z,-0.21
2017-02-15T08:19:17.288Z,-0.08
2017-02-15T08:20:27.826Z,-0.18
2017-02-15T08:21:37.650Z,0
2017-02-15T08:22:46.997Z,-0.01
2017-02-15T08:23:56.326Z,-0.04
2017-02-15T08:25:05.228Z,0.03
2017-02-15T08:26:14.539Z,0.17
2017-02-15T08:27:23.654Z,0.11
2017-02-15T08:28:32.565Z,0.11
2017-02-15T08:29:41.475Z,0.13
2017-02-15T08:30:51.215Z,0.21
2017-02-15T08:32:00.950Z,0.28
2017-02-15T08:33:10.261Z,0.24
2017-02-15T08:34:19.603Z,0.28
2017-02-15T08:35:29.354Z,0.29
2017-02-15T08:36:39.090Z,0.31
2017-02-15T08:37:48.443Z,0.38
2017-02-15T08:38:57.915Z,0.42
2017-02-15T08:40:07.263Z,0.44
2017-02-15T08:41:16.586Z,0.5
2017-02-15T08:42:26.341Z,0.49
2017-02-15T08:43:35.254Z,0.49
2017-02-15T08:44:44.778Z,0.58
2017-02-15T08:45:54.109Z,0.6
2017-02-15T08:47:04.255Z,0.62
2017-02-15T08:48:14.030Z,0.66
2017-02-15T08:49:24.161Z,0.78
2017-02-15T08:50:34.403Z,0.78
2017-02-15T08:51:44.550Z,0.76
2017-02-15T08:52:54.693Z,0.78
2017-02-15T08:54:03.603Z,0.76
2017-02-15T08:55:13.328Z,0.84
2017-02-15T08:56:22.714Z,0.86
2017-02-15T08:57:31.652Z,0.96
2017-02-15T08:58:40.575Z,1
2017-02-15T08:59:49.498Z,0.94
2017-02-15T09:00:59.236Z,1.08
2017-02-15T09:02:08.714Z,1.11
2017-02-15T09:03:18.446Z,1
2017-02-15T09:04:28.180Z,1.06
2017-02-15T09:05:37.502Z,1.12
2017-02-15T09:06:46.425Z,1.2
2017-02-15T09:07:55.405Z,1.3
2017-02-15T09:09:04.748Z,1.3
2017-02-15T09:10:14.082Z,1.29
2017-02-15T09:11:23.426Z,1.44
2017-02-15T09:12:33.168Z,1.45
2017-02-15T09:13:42.691Z,1.45
2017-02-15T09:14:51.603Z,1.5
2017-02-15T09:16:00.526Z,1.5
2017-02-15T09:17:09.841Z,1.63
2017-02-15T09:18:18.751Z,1.6
2017-02-15T09:19:28.944Z,1.59
2017-02-15T09:20:38.264Z,1.7
2017-02-15T09:21:48.023Z,1.68
2017-02-15T09:22:56.961Z,1.72
2017-02-15T09:24:06.707Z,1.81
2017-02-15T09:25:16.486Z,1.81
2017-02-15T09:26:25.404Z,1.9
2017-02-15T09:27:34.753Z,1.84
2017-02-15T09:28:44.497Z,1.95
2017-02-15T09:29:53.406Z,1.95
2017-02-15T09:31:02.875Z,2.05
2017-02-15T09:32:12.183Z,2.05
2017-02-15T09:33:21.109Z,2.03
2017-02-15T09:34:30.068Z,2.16
2017-02-15T09:35:38.996Z,2.07
2017-02-15T09:36:49.014Z,2.12
2017-02-15T09:37:58.743Z,2.18
2017-02-15T09:39:08.876Z,2.24
2017-02-15T09:40:18.257Z,2.2
2017-02-15T09:41:27.600Z,2.34
2017-02-15T09:42:36.593Z,2.41
2017-02-15T09:43:45.936Z,2.43
2017-02-15T09:44:55.659Z,2.59
2017-02-15T09:46:05.401Z,2.56
2017-02-15T09:47:14.733Z,2.57
2017-02-15T09:48:25.132Z,2.71
2017-02-15T09:49:35.274Z,2.67
2017-02-15T09:50:44.591Z,2.66
2017-02-15T09:51:53.507Z,2.66
2017-02-15T09:53:02.450Z,2.77
2017-02-15T09:54:11.520Z,2.82
2017-02-15T09:55:20.881Z,2.9
2017-02-15T09:56:31.028Z,2.95
2017-02-15T09:57:40.751Z,2.99
2017-02-15T09:58:49.696Z,3.08
2017-02-15T09:59:58.777Z,3.08
2017-02-15T10:01:07.698Z,3.24
2017-02-15T10:02:16.616Z,3.15
2017-02-15T10:03:25.937Z,3.32
2017-02-15T10:04:36.094Z,3.26
2017-02-15T10:05:46.037Z,3.33
2017-02-15T10:06:55.786Z,3.47
2017-02-15T10:08:05.515Z,3.54
2017-02-15T10:09:14.437Z,3.6
2017-02-15T10:10:23.771Z,3.65
2017-02-15T10:11:33.961Z,3.65
2017-02-15T10:12:43.693Z,3.7
2017-02-15T10:13:53.011Z,3.72
2017-02-15T10:15:01.927Z,3.76
2017-02-15T10:16:10.867Z,3.87
2017-02-15T10:17:19.851Z,3.94
2017-02-15T10:18:29.997Z,3.96
2017-02-15T10:19:39.723Z,3.98
2017-02-15T10:20:49.058Z,3.96
2017-02-15T10:21:58.808Z,4.05
2017-02-15T10:23:08.296Z,4.04
2017-02-15T10:24:17.645Z,4.08
2017-02-15T10:25:26.973Z,4.08
2017-02-15T10:26:35.900Z,4.15
2017-02-15T10:27:45.655Z,4.12
2017-02-15T10:28:55.855Z,4.23
2017-02-15T10:30:04.788Z,4.34
2017-02-15T10:31:14.520Z,4.37
2017-02-15T10:32:25.076Z,4.41
2017-02-15T10:33:34.409Z,4.41
2017-02-15T10:34:44.770Z,4.51
2017-02-15T10:35:55.316Z,4.59
2017-02-15T10:37:05.045Z,4.69
2017-02-15T10:38:14.787Z,4.69
2017-02-15T10:39:24.125Z,4.72
2017-02-15T10:40:34.690Z,4.82
2017-02-15T10:41:44.427Z,4.92
2017-02-15T10:42:53.751Z,4.96
2017-02-15T10:44:03.104Z,4.94
2017-02-15T10:45:12.034Z,4.96
2017-02-15T10:46:21.971Z,5.02
2017-02-15T10:47:31.289Z,5.1
2017-02-15T10:48:40.209Z,5.17
2017-02-15T10:49:49.585Z,5.17
2017-02-15T10:50:58.519Z,5.21
2017-02-15T10:52:07.709Z,5.33
2017-02-15T10:53:17.053Z,5.49
2017-02-15T10:54:26.375Z,5.54
2017-02-15T10:55:36.114Z,5.54
2017-02-15T10:56:46.262Z,5.54
2017-02-15T10:57:55.397Z,5.64
2017-02-15T10:59:04.346Z,5.61
2017-02-15T11:00:14.093Z,5.64
2017-02-15T11:01:23.418Z,5.68
2017-02-15T11:02:32.758Z,5.71
2017-02-15T11:03:42.199Z,5.79
2017-02-15T11:04:51.136Z,5.89
2017-02-15T11:06:00.066Z,5.9
2017-02-15T11:07:10.209Z,5.96
2017-02-15T11:08:19.942Z,5.96
2017-02-15T11:09:29.729Z,6.03
2017-02-15T11:10:39.465Z,6
2017-02-15T11:11:48.793Z,5.94
2017-02-15T11:12:58.552Z,6.01
2017-02-15T11:14:07.909Z,6.12
2017-02-15T11:15:17.093Z,6.14
2017-02-15T11:16:26.426Z,6.25
2017-02-15T11:17:35.772Z,6.28
2017-02-15T11:18:45.105Z,6.36
2017-02-15T11:19:54.859Z,6.4
2017-02-15T11:21:04.763Z,6.49
2017-02-15T11:22:13.702Z,6.44
2017-02-15T11:23:23.034Z,6.51
2017-02-15T11:24:33.205Z,6.44
2017-02-15T11:25:42.952Z,6.49
2017-02-15T11:26:52.432Z,6.52
2017-02-15T11:28:02.585Z,6.61
2017-02-15T11:29:11.941Z,6.67
2017-02-15T11:30:21.277Z,6.74
2017-02-15T11:31:31.011Z,6.85
2017-02-15T11:32:40.950Z,6.88
2017-02-15T11:33:50.283Z,6.92
2017-02-15T11:34:59.617Z,6.98
2017-02-15T11:36:09.348Z,7.03
2017-02-15T11:37:19.089Z,7.13
2017-02-15T11:38:28.439Z,7.13
2017-02-15T11:39:38.179Z,7.17
2017-02-15T11:40:47.504Z,7.16
2017-02-15T11:41:57.244Z,7.28
2017-02-15T11:43:06.987Z,7.31
2017-02-15T11:44:17.280Z,7.49
2017-02-15T11:45:26.609Z,7.46
2017-02-15T11:46:35.567Z,7.55
2017-02-15T11:47:44.912Z,7.55
2017-02-15T11:48:54.648Z,7.58
2017-02-15T11:50:04.399Z,7.6
2017-02-15T11:51:13.721Z,7.63
2017-02-15T11:52:23.860Z,7.63
2017-02-15T11:53:33.202Z,7.67
2017-02-15T11:54:42.133Z,7.82
2017-02-15T11:55:51.686Z,7.82
2017-02-15T11:57:01.026Z,7.9
2017-02-15T11:58:09.973Z,7.9
2017-02-15T11:59:19.311Z,7.97
2017-02-15T12:00:28.684Z,7.97
2017-02-15T12:01:38.319Z,8.04
2017-02-15T12:02:48.588Z,8.16
2017-02-15T12:03:58.007Z,8.26
2017-02-15T12:05:07.387Z,8.4
2017-02-15T12:06:16.732Z,8.41
2017-02-15T12:07:26.207Z,8.53
2017-02-15T12:08:35.139Z,8.43
2017-02-15T12:09:44.471Z,8.37
2017-02-15T12:10:54.633Z,8.34
2017-02-15T12:12:03.777Z,8.41
2017-02-15T12:13:13.360Z,8.4
2017-02-15T12:14:22.698Z,8.44
2017-02-15T12:15:32.425Z,8.41
2017-02-15T12:16:42.573Z,8.43
2017-02-15T12:17:52.302Z,8.43
2017-02-15T12:19:01.834Z,8.48
2017-02-15T12:20:11.581Z,8.5
2017-02-15T12:21:20.498Z,8.47
2017-02-15T12:22:30.238Z,8.59
2017-02-15T12:23:40.373Z,8.65
2017-02-15T12:24:50.161Z,8.77
2017-02-15T12:25:59.894Z,8.86
2017-02-15T12:27:09.656Z,8.84
2017-02-15T12:28:18.996Z,8.96
2017-02-15T12:29:27.925Z,9.04
2017-02-15T12:30:37.099Z,9.11
2017-02-15T12:31:46.452Z,9.11
2017-02-15T12:32:56.192Z,9.21
2017-02-15T12:34:05.522Z,9.23
2017-02-15T12:35:14.461Z,9.21
2017-02-15T12:36:24.779Z,9.35
2017-02-15T12:37:34.933Z,9.32
2017-02-15T12:38:44.695Z,9.46
2017-02-15T12:39:54.023Z,9.47
2017-02-15T12:41:03.760Z,9.5
2017-02-15T12:42:12.890Z,9.54
2017-02-15T12:43:22.648Z,9.53
2017-02-15T12:44:31.595Z,9.58
2017-02-15T12:45:40.935Z,9.64
2017-02-15T12:46:50.268Z,9.68
2017-02-15T12:48:00.477Z,9.81
2017-02-15T12:49:09.813Z,9.79
2017-02-15T12:50:19.137Z,9.79
2017-02-15T12:51:28.898Z,9.78
2017-02-15T12:52:38.631Z,9.9
2017-02-15T12:53:48.023Z,9.9
2017-02-15T12:54:57.369Z,9.99
2017-02-15T12:56:07.115Z,10.05
2017-02-15T12:57:16.435Z,10.12
2017-02-15T12:58:25.783Z,10.2
2017-02-15T12:59:35.262Z,10.2
2017-02-15T13:00:44.993Z,10.33
2017-02-15T13:01:55.135Z,10.33
2017-02-15T13:03:04.054Z,10.36
2017-02-15T13:04:14.233Z,10.34
2017-02-15T13:05:23.609Z,10.36
2017-02-15T13:06:32.548Z,10.38
2017-02-15T13:07:41.901Z,10.45
2017-02-15T13:08:51.636Z,10.53
2017-02-15T13:10:00.558Z,10.51
2017-02-15T13:11:10.452Z,10.59
2017-02-15T13:12:20.194Z,10.67
2017-02-15T13:13:29.522Z,10.67
2017-02-15T13:14:39.691Z,10.7
2017-02-15T13:15:49.429Z,10.71
2017-02-15T13:16:59.264Z,10.74
2017-02-15T13:18:08.613Z,10.74
2017-02-15T13:19:17.972Z,10.78
2017-02-15T13:20:27.320Z,10.79
2017-02-15T13:21:36.657Z,10.88
2017-02-15T13:22:45.743Z,10.84
2017-02-15T13:23:55.497Z,10.86
2017-02-15T13:25:05.253Z,10.86
2017-02-15T13:26:14.606Z,10.99
2017-02-15T13:27:24.356Z,10.97
2017-02-15T13:28:34.261Z,10.99
2017-02-15T13:29:43.622Z,11.03
2017-02-15T13:30:53.384Z,11.04
2017-02-15T13:32:02.733Z,11.04
2017-02-15T13:33:12.083Z,11.09
2017-02-15T13:34:21.973Z,11.15
2017-02-15T13:35:31.723Z,11.1
2017-02-15T13:36:41.867Z,11.24
2017-02-15T13:37:51.214Z,11.19
2017-02-15T13:39:00.966Z,11.33
2017-02-15T13:40:10.774Z,11.4
2017-02-15T13:41:19.712Z,11.42
2017-02-15T13:42:29.056Z,11.39
2017-02-15T13:43:37.999Z,11.43
2017-02-15T13:44:48.151Z,11.54
2017-02-15T13:45:57.641Z,11.6
2017-02-15T13:47:06.563Z,11.55
2017-02-15T13:48:15.501Z,11.64
2017-02-15T13:49:25.262Z,11.67
2017-02-15T13:50:35.051Z,11.7
2017-02-15T13:51:44.843Z,11.72
2017-02-15T13:52:54.621Z,11.78
2017-02-15T13:54:04.387Z,11.76
2017-02-15T13:55:13.307Z,11.79
2017-02-15T13:56:23.046Z,11.86
2017-02-15T13:57:32.921Z,11.83
2017-02-15T13:58:42.253Z,11.8
2017-02-15T13:59:52.018Z,11.94
2017-02-15T14:01:02.195Z,11.91
2017-02-15T14:02:11.542Z,11.9
2017-02-15T14:03:21.033Z,12.04
2017-02-15T14:04:31.199Z,12.1
2017-02-15T14:05:41.785Z,12.16
2017-02-15T14:06:51.169Z,12.16
2017-02-15T14:08:00.512Z,12.14
2017-02-15T14:09:09.781Z,12.16
2017-02-15T14:10:19.948Z,12.23
2017-02-15T14:11:29.690Z,12.24
2017-02-15T14:12:39.440Z,12.31
2017-02-15T14:13:49.190Z,12.37
2017-02-15T14:14:58.327Z,12.45
2017-02-15T14:16:08.073Z,12.45
2017-02-15T14:17:17.005Z,12.46
2017-02-15T14:18:25.928Z,12.5
2017-02-15T14:19:35.662Z,12.53
2017-02-15T14:20:44.796Z,12.6
2017-02-15T14:21:54.127Z,12.52
2017-02-15T14:23:03.880Z,12.6
2017-02-15T14:24:13.237Z,12.57
2017-02-15T14:25:22.174Z,12.7
2017-02-15T14:26:32.060Z,12.7
2017-02-15T14:27:41.011Z,12.71
2017-02-15T14:28:50.380Z,12.83
2017-02-15T14:29:59.733Z,12.85
2017-02-15T14:31:08.679Z,12.77
2017-02-15T14:32:18.993Z,12.79
2017-02-15T14:33:28.759Z,12.82
2017-02-15T14:34:38.519Z,12.77
2017-02-15T14:35:47.864Z,12.82
2017-02-15T14:36:57.217Z,12.85
2017-02-15T14:38:07.027Z,12.9
2017-02-15T14:39:15.958Z,12.87
2017-02-15T14:40:24.889Z,12.87
2017-02-15T14:41:35.139Z,12.97
2017-02-15T14:42:44.076Z,12.93
2017-02-15T14:43:53.515Z,12.97
2017-02-15T14:45:03.275Z,13.03
2017-02-15T14:46:13.032Z,13.04
2017-02-15T14:47:22.786Z,13.05
2017-02-15T14:48:32.564Z,13.04
2017-02-15T14:49:41.920Z,13.08
2017-02-15T14:50:52.912Z,13.15
2017-02-15T14:52:02.669Z,13.29
2017-02-15T14:53:12.010Z,13.25
2017-02-15T14:54:22.160Z,13.29
2017-02-15T14:55:32.310Z,13.29
2017-02-15T14:56:42.502Z,13.23
2017-02-15T14:57:52.255Z,13.22
2017-02-15T14:59:01.599Z,13.14
2017-02-15T15:00:11.753Z,13.05
2017-02-15T15:01:21.089Z,13.04
2017-02-15T15:02:30.839Z,13.03
2017-02-15T15:03:40.591Z,13.01
2017-02-15T15:04:50.347Z,13.01
2017-02-15T15:05:59.718Z,13
2017-02-15T15:07:08.657Z,13
2017-02-15T15:08:19.220Z,13.01
2017-02-15T15:09:29.126Z,13.05
2017-02-15T15:10:38.877Z,13.07
2017-02-15T15:11:48.225Z,13.08
2017-02-15T15:12:57.557Z,13
2017-02-15T15:14:07.312Z,13.01
2017-02-15T15:15:16.692Z,13.05
2017-02-15T15:16:25.634Z,13
2017-02-15T15:17:34.988Z,12.79
2017-02-15T15:18:43.925Z,12.83
2017-02-15T15:19:52.883Z,12.77